Great Valley, New York
Current Conditions -  °F | °C
As of 7:35 AM on Monday 22 Dec 2014 (Local Time) from KOLE Reporting Station
Clear Clear  
Wind Chill: 13°   Ceiling: Unl
Heat Index: 21°   Visibility: 10mi
Dew Point: 21°   Wind: 7mph
Humidity: 100%   Direction: 140°SE
Pressure: 30.11"   Gusts: NA
Location:  42.21°N, 78.64°W
Report Text: KOLE 221235Z AUTO 14006KT 10SM CLR M06/M06 A3011 RMK AO2
Loading
Personal Weather Stations






























Interactive Weather Map New forecast layout! Learn more

10-Day Weather Forecast

Advertisements
Track Severe Weather on mobile